Time;durP1;ratioP1;P1;durP2;ratioP2;P2;SDS_P1;SDS_P2;PMS_P1;PMS_P2;Temp;Humidity;BMP_temperature;BMP_pressure;BME280_temperature;BME280_humidity;BME280_pressure;Samples;Min_cycle;Max_cycle;Signal;HPM_P1;HPM_P2
2023/09/12 07:01:27;;;;;;;15.15;7.53;;;20.00;99.90;23.10;101030.00;;;;6098789;22;4124456;-82
2023/09/12 07:04:05;;;;;;;4.22;3.92;;;20.20;99.90;21.90;101017.00;;;;6281998;22;20189;-79
2023/09/12 07:06:34;;;;;;;0.30;0.30;;;19.80;99.90;22.20;101030.00;;;;6281766;22;20140;-78
2023/09/12 07:09:20;;;;;;;3.22;2.92;;;19.50;99.90;22.60;101056.00;;;;6281971;22;20140;-78
2023/09/12 07:11:58;;;;;;;1.38;1.30;;;19.50;99.90;22.90;101052.00;;;;6282445;22;20141;-77
2023/09/12 07:14:26;;;;;;;0.77;0.77;;;19.60;99.90;24.00;101049.00;;;;6282102;22;20215;-79
2023/09/12 07:16:53;;;;;;;1.38;1.35;;;20.10;99.90;23.20;101031.00;;;;6282926;22;20141;-84
2023/09/12 07:19:18;;;;;;;1.50;1.40;;;20.30;99.90;22.20;101043.00;;;;6255747;22;20160;-84
2023/09/12 07:21:45;;;;;;;19.23;9.48;;;19.80;99.90;23.30;101069.00;;;;6309123;22;20145;-84
2023/09/12 07:24:13;;;;;;;2.25;2.15;;;20.00;99.90;23.80;101045.00;;;;6281754;22;20479;-84
2023/09/12 07:26:39;;;;;;;0.43;0.43;;;20.50;99.90;25.00;101079.00;;;;6282001;22;20148;-85
2023/09/12 07:29:05;;;;;;;3.60;2.05;;;21.10;99.90;25.20;101072.00;;;;6256414;22;20167;-84
2023/09/12 07:31:35;;;;;;;2.67;2.47;;;21.30;99.90;24.90;101051.00;;;;6282032;22;20167;-85
2023/09/12 07:34:38;;;;;;;0.30;0.30;;;21.50;99.90;25.90;101071.00;;;;6281608;22;20144;-85
2023/09/12 07:37:12;;;;;;;0.75;0.75;;;21.90;99.90;23.60;101086.00;;;;6281903;22;20151;-84
2023/09/12 07:39:38;;;;;;;1.60;1.40;;;21.20;99.90;23.30;101088.00;;;;6308416;22;20718;-84
2023/09/12 07:42:04;;;;;;;0.20;0.20;;;20.60;99.90;23.90;101081.00;;;;6309241;22;20190;-84
2023/09/12 07:44:30;;;;;;;1.70;1.60;;;20.70;99.90;24.40;101096.00;;;;6309169;22;20151;-84
2023/09/12 07:46:56;;;;;;;0.50;0.50;;;20.90;99.90;24.10;101072.00;;;;6280839;22;20148;-84
2023/09/12 07:49:27;;;;;;;8.10;4.30;;;20.90;99.90;23.40;101076.00;;;;6280485;22;20156;-83
2023/09/12 07:51:58;;;;;;;1.92;1.85;;;20.80;99.90;23.10;101052.00;;;;6281300;22;20196;-85
2023/09/12 07:54:23;;;;;;;9.63;6.47;;;20.50;99.90;23.70;101051.00;;;;6308607;22;20159;-83
2023/09/12 07:56:57;;;;;;;7.78;6.93;;;20.60;99.90;24.00;101057.00;;;;6308308;22;20573;-83
2023/09/12 07:59:23;;;;;;;6.38;5.03;;;20.90;99.90;23.40;101068.00;;;;6254325;22;20168;-81
2023/09/12 08:01:49;;;;;;;7.03;4.43;;;20.80;99.90;24.40;101085.00;;;;6281551;22;20524;-78
2023/09/12 08:04:18;;;;;;;12.68;9.20;;;21.10;99.90;24.00;101079.00;;;;6281024;22;20141;-71
2023/09/12 08:06:48;;;;;;;0.45;0.45;;;21.10;99.90;24.30;101081.00;;;;6308837;22;20144;-75
2023/09/12 08:09:14;;;;;;;3.17;2.92;;;21.00;99.90;23.30;101090.00;;;;6281942;22;20475;-76
2023/09/12 08:11:41;;;;;;;6.68;4.70;;;21.00;99.90;23.70;101100.00;;;;6281541;22;20623;-76
2023/09/12 08:14:12;;;;;;;4.80;4.32;;;20.90;99.90;24.20;101057.00;;;;6280977;22;20144;-76
2023/09/12 08:16:38;;;;;;;4.10;3.78;;;21.40;99.90;24.10;101083.00;;;;6255897;22;20152;-73
2023/09/12 08:19:04;;;;;;;2.35;1.98;;;21.50;99.90;23.40;101095.00;;;;6308290;22;20573;-73
2023/09/12 08:21:30;;;;;;;0.65;0.65;;;20.90;99.90;23.90;101094.00;;;;6281106;22;20140;-73
2023/09/12 08:24:16;;;;;;;8.13;7.50;;;20.90;99.90;24.50;101102.00;;;;6280939;22;20144;-77
2023/09/12 08:26:41;;;;;;;8.05;5.28;;;21.80;99.90;23.20;101088.00;;;;6280785;22;20147;-76
2023/09/12 08:29:24;;;;;;;7.03;6.28;;;21.10;99.90;24.00;101095.00;;;;6281082;22;20220;-75
2023/09/12 08:31:58;;;;;;;1.85;1.70;;;21.30;99.90;24.30;101102.00;;;;6258428;22;20495;-76
2023/09/12 08:34:27;;;;;;;4.03;2.95;;;21.70;99.90;25.30;101106.00;;;;6255585;22;20197;-76
2023/09/12 08:36:56;;;;;;;0.75;0.75;;;22.10;99.90;26.60;101091.00;;;;6281081;22;20549;-77
2023/09/12 08:39:46;;;;;;;1.95;1.85;;;22.70;99.90;28.40;101153.00;;;;6281136;22;20255;-77
2023/09/12 08:42:23;;;;;;;0.73;0.68;;;23.70;99.90;27.80;101153.00;;;;6255586;22;20221;-80
2023/09/12 08:44:53;;;;;;;6.82;5.97;;;24.20;99.90;26.70;101095.00;;;;6282677;22;20136;-80
2023/09/12 08:47:31;;;;;;;6.47;5.85;;;23.60;99.90;27.50;101147.00;;;;6254901;22;20160;-80
2023/09/12 08:50:02;;;;;;;0.93;0.93;;;24.30;99.90;28.10;101144.00;;;;6280739;22;20217;-80
2023/09/12 08:52:28;;;;;;;16.83;8.35;;;24.20;99.90;28.20;101158.00;;;;6280554;22;20214;-80
2023/09/12 08:54:53;;;;;;;4.05;2.63;;;24.70;99.90;26.00;101133.00;;;;6307846;22;20140;-80
2023/09/12 08:57:20;;;;;;;2.20;0.52;;;24.00;99.90;28.00;101148.00;;;;6308155;22;20572;-79
2023/09/12 08:59:47;;;;;;;1.35;1.00;;;24.20;99.90;30.20;101163.00;;;;6280737;22;20596;-79
2023/09/12 09:02:24;;;;;;;6.60;4.47;;;25.40;99.90;28.70;101164.00;;;;6254920;22;20164;-79
2023/09/12 09:04:51;;;;;;;4.45;2.78;;;25.70;99.90;26.70;101127.00;;;;6281876;22;20148;-79
2023/09/12 09:07:21;;;;;;;3.75;3.38;;;24.60;99.90;27.30;101148.00;;;;6279588;22;20587;-79
2023/09/12 09:09:53;;;;;;;2.30;1.33;;;24.30;99.90;29.00;101152.00;;;;6255737;22;20229;-75
2023/09/12 09:12:40;;;;;;;2.05;1.95;;;24.60;99.90;27.00;101126.00;;;;6254985;22;20913;-75
2023/09/12 09:15:26;;;;;;;3.00;2.80;;;24.40;99.90;27.90;101121.00;;;;6281210;22;20159;-75
2023/09/12 09:18:00;;;;;;;6.95;5.13;;;24.20;99.90;28.30;101116.00;;;;6280072;22;20163;-75
2023/09/12 09:20:32;;;;;;;0.43;0.43;;;24.70;99.90;29.50;101154.00;;;;6255504;22;20186;-76
2023/09/12 09:23:09;;;;;;;2.38;2.28;;;25.50;99.90;31.00;101177.00;;;;6255197;22;20156;-77
2023/09/12 09:25:41;;;;;;;2.33;2.22;;;26.40;99.90;31.70;101202.00;;;;6280954;22;20193;-76
2023/09/12 09:28:30;;;;;;;8.32;5.55;;;27.00;99.90;29.00;101200.00;;;;6254849;22;20148;-76
2023/09/12 09:30:56;;;;;;;6.82;3.70;;;26.40;99.90;27.20;101113.00;;;;6244502;22;20592;-76
2023/09/12 09:33:26;;;;;;;2.58;2.38;;;25.00;99.90;26.90;101091.00;;;;6279918;22;20251;-75
2023/09/12 09:36:16;;;;;;;2.25;0.75;;;24.20;99.90;28.60;101140.00;;;;6254841;22;20160;-75
2023/09/12 09:38:48;;;;;;;0.10;0.10;;;24.60;99.90;30.10;101155.00;;;;6255082;22;20578;-80
2023/09/12 09:41:24;;;;;;;0.85;0.85;;;25.60;99.90;28.50;101146.00;;;;6280061;22;20235;-76
2023/09/12 09:43:59;;;;;;;4.38;3.92;;;25.70;99.90;28.60;101151.00;;;;6280053;22;20223;-79
2023/09/12 09:46:27;;;;;;;2.38;1.75;;;25.20;99.90;26.80;101130.00;;;;6254893;22;20497;-77
2023/09/12 09:48:56;;;;;;;2.05;1.95;;;24.60;99.90;28.90;101162.00;;;;6306809;22;20504;-77
2023/09/12 09:51:21;;;;;;;2.20;1.55;;;24.90;99.90;27.70;101143.00;;;;6254750;22;20169;-81
2023/09/12 09:53:58;;;;;;;7.30;5.38;;;24.70;99.90;28.30;101157.00;;;;6307341;22;20160;-84
2023/09/12 09:56:32;;;;;;;0.50;0.50;;;25.20;99.90;27.70;101147.00;;;;6280989;22;20136;-84
2023/09/12 09:59:02;;;;;;;3.67;3.35;;;24.60;99.90;27.90;101138.00;;;;6307968;22;20156;-84
2023/09/12 10:01:31;;;;;;;6.70;2.50;;;24.80;99.90;28.90;101148.00;;;;6282297;22;20247;-75
2023/09/12 10:04:07;;;;;;;4.75;2.75;;;25.30;99.90;27.10;101092.00;;;;6280507;22;20171;-79
2023/09/12 10:07:03;;;;;;;10.23;5.85;;;24.60;99.90;28.40;101125.00;;;;6280006;22;20152;-79
2023/09/12 10:09:34;;;;;;;2.13;1.17;;;25.20;99.90;27.20;101126.00;;;;6254385;22;20160;-79
2023/09/12 10:12:00;;;;;;;1.80;1.73;;;25.00;99.90;29.50;101154.00;;;;6280339;22;20172;-79
2023/09/12 10:14:31;;;;;;;2.78;1.90;;;25.40;99.90;30.40;101162.00;;;;6307093;22;20145;-80
2023/09/12 10:17:02;;;;;;;3.97;2.90;;;26.40;99.90;27.30;101119.00;;;;6307884;22;20152;-79
2023/09/12 10:20:03;;;;;;;1.98;1.35;;;25.20;99.90;27.40;101111.00;;;;6254539;22;20160;-79
2023/09/12 10:33:49;;;;;;;0.65;0.65;;;25.60;99.90;29.70;101161.00;;;;5069490;28;20543;-78
2023/09/12 10:36:39;;;;;;;4.57;3.47;;;25.90;99.90;30.80;101213.00;;;;5048357;28;20240;-84
2023/09/12 10:39:27;;;;;;;0.10;0.10;;;27.20;99.90;29.00;101162.00;;;;5032128;28;20269;-83
2023/09/12 10:42:16;;;;;;;0.52;0.47;;;26.20;99.90;30.80;101214.00;;;;5040267;28;20657;-85
2023/09/12 10:45:09;;;;;;;1.02;0.65;;;27.00;99.90;29.30;101249.00;;;;5012536;28;20185;-84
2023/09/12 10:47:53;;;;;;;1.38;1.27;;;27.20;99.90;29.80;101165.00;;;;5079329;28;20194;-83
2023/09/12 10:50:25;;;;;;;4.40;3.80;;;26.40;99.90;29.10;101176.00;;;;5058956;28;20194;-83
2023/09/12 10:53:15;;;;;;;1.38;0.63;;;26.20;99.90;29.50;101162.00;;;;5076248;28;20205;-84
2023/09/12 10:56:19;;;;;;;1.13;0.85;;;26.30;99.90;32.10;101218.00;;;;5000130;28;20212;-84
2023/09/12 10:59:04;;;;;;;0.60;0.60;;;27.30;99.90;32.40;101244.00;;;;5048121;28;20201;-85
2023/09/12 11:02:29;;;;;;;0.38;0.38;;;28.00;99.90;29.10;101202.00;;;;5047446;28;20198;-83
2023/09/12 11:05:29;;;;;;;6.03;2.90;;;26.30;99.90;28.00;101206.00;;;;5048185;28;20185;-84
2023/09/12 11:08:42;;;;;;;0.30;0.30;;;25.80;99.90;29.00;101164.00;;;;5040620;28;20190;-83
2023/09/12 11:12:06;;;;;;;2.35;2.25;;;25.30;99.90;29.90;101190.00;;;;5031674;28;20178;-84
2023/09/12 11:15:05;;;;;;;2.25;1.80;;;26.00;99.90;29.80;101210.00;;;;5042460;28;20186;-84
2023/09/12 11:18:03;;;;;;;0.45;0.45;;;26.40;99.90;31.10;101224.00;;;;5042630;28;20178;-83
2023/09/12 11:21:03;;;;;;;2.47;2.30;;;26.90;99.90;29.30;101261.00;;;;5047656;28;20637;-83
2023/09/12 11:23:41;;;;;;;0.10;0.10;;;27.00;99.90;31.90;101214.00;;;;5045145;28;20676;-85
2023/09/12 11:26:54;;;;;;;0.10;0.10;;;27.40;99.90;32.20;101250.00;;;;5031154;28;20186;-83
2023/09/12 11:29:36;;;;;;;3.10;1.90;;;27.70;99.90;30.30;101255.00;;;;5049576;28;20277;-84
2023/09/12 11:32:36;;;;;;;0.10;0.10;;;27.60;99.90;31.80;101251.00;;;;5047867;28;20225;-84
2023/09/12 11:35:30;;;;;;;3.58;3.25;;;27.60;99.90;33.40;101227.00;;;;5029819;28;20221;-84
2023/09/12 11:38:21;;;;;;;0.10;0.10;;;28.50;99.90;32.70;101243.00;;;;5032466;28;20248;-85
2023/09/12 11:40:50;;;;;;;0.38;0.32;;;28.80;99.90;34.00;101239.00;;;;5047504;28;20190;-84
2023/09/12 11:43:32;;;;;;;2.53;1.08;;;29.30;99.90;32.00;101280.00;;;;5044585;28;20234;-84
2023/09/12 11:46:06;;;;;;;0.45;0.45;;;28.60;99.90;33.00;101267.00;;;;5014698;28;20209;-84
2023/09/12 11:48:34;;;;;;;0.10;0.10;;;28.70;99.90;33.50;101256.00;;;;5048302;28;20545;-84
2023/09/12 11:51:10;;;;;;;0.17;0.17;;;29.10;99.90;34.40;101241.00;;;;5034501;28;20198;-85
2023/09/12 11:53:59;;;;;;;2.90;2.22;;;29.70;99.90;33.50;101256.00;;;;5035984;28;20186;-85
2023/09/12 11:56:30;;;;;;;1.38;1.27;;;29.80;99.90;30.10;101258.00;;;;5049581;28;20247;-84
2023/09/12 11:59:21;;;;;;;0.38;0.38;;;27.80;99.90;32.90;101254.00;;;;5049479;28;20240;-84
2023/09/12 12:02:11;;;;;;;0.10;0.10;;;28.20;99.90;33.40;101250.00;;;;5047404;28;20256;-85
2023/09/12 12:04:40;;;;;;;1.50;1.50;;;28.80;99.90;33.60;101238.00;;;;5030565;28;20552;-85
2023/09/12 12:07:29;;;;;;;0.77;0.73;;;29.30;99.90;30.20;101287.00;;;;5046564;28;20274;-82
2023/09/12 12:10:03;;;;;;;1.20;1.10;;;28.00;99.90;32.20;101248.00;;;;5046436;28;20195;-84
2023/09/12 12:12:30;;;;;;;0.57;0.55;;;27.70;99.90;33.00;101263.00;;;;5037107;28;20277;-85
2023/09/12 12:15:00;;;;;;;0.10;0.10;;;28.40;99.90;33.30;101242.00;;;;5033378;28;20206;-84
2023/09/12 12:17:26;;;;;;;0.38;0.38;;;28.70;99.90;34.20;101222.00;;;;5034471;28;20182;-84
2023/09/12 12:20:06;;;;;;;1.10;1.10;;;29.20;99.90;33.80;101234.00;;;;5034497;28;20191;-84
2023/09/12 12:22:52;;;;;;;0.10;0.10;;;29.40;99.90;33.70;101218.00;;;;5031359;28;20225;-84
2023/09/12 12:25:22;;;;;;;0.45;0.45;;;29.40;99.90;34.10;101224.00;;;;5045177;28;20191;-83
2023/09/12 12:27:50;;;;;;;0.10;0.10;;;29.40;99.90;34.30;101211.00;;;;5033882;28;20274;-84
2023/09/12 12:30:35;;;;;;;0.93;0.65;;;29.60;99.90;33.30;101228.00;;;;5030825;28;20210;-84
2023/09/12 12:33:19;;;;;;;0.45;0.45;;;29.20;99.90;30.50;101285.00;;;;5033158;28;20293;-84
2023/09/12 12:36:07;;;;;;;0.63;0.63;;;27.80;99.90;31.30;101271.00;;;;5011571;28;20245;-83
2023/09/12 12:38:53;;;;;;;0.32;0.32;;;27.40;99.90;31.20;101268.00;;;;5031750;28;20653;-84
2023/09/12 12:41:29;;;;;;;0.70;0.52;;;27.20;99.90;31.60;101244.00;;;;5033177;28;20186;-83
2023/09/12 12:44:01;;;;;;;0.90;0.80;;;27.50;99.90;30.80;101251.00;;;;5058708;28;20187;-83
2023/09/12 12:46:28;;;;;;;0.20;0.20;;;27.10;99.90;32.00;101253.00;;;;5044499;28;20194;-82
2023/09/12 12:49:18;;;;;;;0.75;0.75;;;27.40;99.90;32.80;101240.00;;;;5034372;28;20545;-84
2023/09/12 12:51:46;;;;;;;0.15;0.15;;;27.90;99.90;33.00;101239.00;;;;5032689;28;20199;-84
2023/09/12 12:54:14;;;;;;;3.45;3.25;;;28.30;99.90;33.10;101230.00;;;;5019052;28;20183;-84
2023/09/12 12:56:58;;;;;;;2.88;1.23;;;28.50;99.90;33.30;101228.00;;;;5032274;28;20167;-84
2023/09/12 12:59:23;;;;;;;0.47;0.47;;;28.60;99.90;33.20;101224.00;;;;5033158;28;20252;-83
2023/09/12 13:01:51;;;;;;;1.27;1.05;;;28.60;99.90;32.80;101240.00;;;;5034095;28;20653;-83
2023/09/12 13:04:37;;;;;;;0.47;0.47;;;28.60;99.90;33.00;101233.00;;;;5029542;28;20179;-83
2023/09/12 13:07:06;;;;;;;3.50;2.65;;;28.50;99.90;32.30;101235.00;;;;5030726;28;20191;-84
2023/09/12 13:09:36;;;;;;;0.15;0.15;;;28.30;99.90;33.10;101234.00;;;;5032620;28;20636;-84
2023/09/12 13:12:10;;;;;;;1.80;0.22;;;28.50;99.90;33.80;101240.00;;;;5033666;28;20237;-83
2023/09/12 13:14:39;;;;;;;0.43;0.43;;;28.90;99.90;33.60;101240.00;;;;5030031;28;20594;-83
2023/09/12 13:17:16;;;;;;;2.92;2.15;;;29.10;99.90;33.60;101238.00;;;;5011722;28;20199;-84
2023/09/12 13:19:57;;;;;;;1.00;0.68;;;29.20;99.90;33.80;101234.00;;;;5033769;28;20182;-84
2023/09/12 13:22:48;;;;;;;1.45;1.25;;;29.30;99.90;32.60;101240.00;;;;5032219;28;20225;-83
2023/09/12 13:25:52;;;;;;;1.17;1.08;;;29.00;99.90;33.30;101225.00;;;;5016293;28;20539;-84
2023/09/12 13:28:36;;;;;;;4.47;3.10;;;28.90;99.90;32.50;101229.00;;;;5055576;28;20194;-84
2023/09/12 13:31:08;;;;;;;0.90;0.90;;;28.70;99.90;33.40;101218.00;;;;5015878;28;20266;-84
2023/09/12 13:33:54;;;;;;;0.22;0.22;;;28.80;99.90;34.00;101228.00;;;;5033989;28;20740;-84
2023/09/12 13:36:38;;;;;;;2.60;2.03;;;29.20;99.90;32.30;101230.00;;;;5015430;28;20193;-84
2023/09/12 13:39:12;;;;;;;0.90;0.90;;;28.80;99.90;32.70;101207.00;;;;5057559;28;20187;-84
2023/09/12 13:41:42;;;;;;;4.47;3.95;;;28.40;99.90;33.20;101187.00;;;;5032010;28;20210;-85
2023/09/12 13:44:30;;;;;;;1.83;1.73;;;28.70;99.90;32.60;101210.00;;;;5031310;28;20613;-83
2023/09/12 13:47:13;;;;;;;0.20;0.20;;;28.40;99.90;33.20;101213.00;;;;5032762;28;20190;-84
2023/09/12 13:50:02;;;;;;;0.20;0.20;;;28.70;99.90;33.50;101194.00;;;;5032279;28;20183;-82
2023/09/12 13:52:48;;;;;;;6.35;5.45;;;28.90;99.90;31.00;101241.00;;;;5014666;28;20199;-79
2023/09/12 13:55:22;;;;;;;0.10;0.10;;;28.30;99.90;30.20;101137.00;;;;5036273;28;20190;-83
2023/09/12 13:57:56;;;;;;;1.17;1.17;;;26.90;99.90;32.20;101196.00;;;;5031463;28;20182;-82
2023/09/12 14:00:32;;;;;;;0.50;0.50;;;27.60;99.90;32.60;101194.00;;;;5033470;28;20207;-82
2023/09/12 14:03:01;;;;;;;6.43;4.13;;;28.00;99.90;32.10;101194.00;;;;5032186;28;20608;-82
2023/09/12 14:05:45;;;;;;;1.58;1.48;;;27.90;99.90;32.70;101137.00;;;;5031772;28;20170;-83
2023/09/12 14:08:11;;;;;;;1.95;1.83;;;28.10;99.90;32.60;101184.00;;;;5013199;28;20286;-83
2023/09/12 14:10:39;;;;;;;4.00;3.70;;;28.20;99.90;31.90;101191.00;;;;5020225;28;20274;-82
2023/09/12 14:13:29;;;;;;;1.67;0.68;;;28.00;99.90;32.50;101211.00;;;;5027783;28;20306;-82
2023/09/12 14:16:18;;;;;;;4.20;3.83;;;28.00;99.90;29.90;101187.00;;;;5042260;28;20205;-82
2023/09/12 14:18:51;;;;;;;3.58;2.95;;;27.20;99.90;30.90;101167.00;;;;5030835;28;20182;-81
2023/09/12 14:21:57;;;;;;;0.20;0.20;;;27.10;99.90;31.40;101158.00;;;;5046703;28;20652;-82
2023/09/12 14:24:48;;;;;;;0.10;0.10;;;27.10;99.90;31.70;101180.00;;;;5045188;28;20251;-82
2023/09/12 14:27:43;;;;;;;0.25;0.25;;;27.30;99.90;31.70;101191.00;;;;5029470;28;20221;-83
2023/09/12 14:30:44;;;;;;;1.08;0.70;;;27.40;99.90;31.80;101200.00;;;;5042956;28;20643;-83
2023/09/12 14:33:36;;;;;;;0.73;0.70;;;27.40;99.90;30.60;101190.00;;;;5041580;28;20233;-82
2023/09/12 14:36:08;;;;;;;5.13;4.78;;;27.10;99.90;30.50;101155.00;;;;5030717;28;20255;-82
2023/09/12 14:38:45;;;;;;;2.30;2.20;;;26.60;99.90;29.70;101124.00;;;;5058786;28;20190;-79
2023/09/12 14:41:36;;;;;;;1.98;1.88;;;26.30;99.90;31.00;101147.00;;;;5039631;28;20278;-81
2023/09/12 14:44:21;;;;;;;0.17;0.17;;;26.60;99.90;31.20;101152.00;;;;5036007;28;20568;-83
2023/09/12 14:47:18;;;;;;;0.10;0.10;;;26.80;99.90;31.20;101157.00;;;;5036032;28;20198;-82
2023/09/12 14:50:48;;;;;;;1.40;1.30;;;27.00;99.90;31.20;101166.00;;;;5033567;28;20900;-82
2023/09/12 14:53:44;;;;;;;0.28;0.28;;;27.20;99.90;31.10;101158.00;;;;5034874;28;20210;-82
2023/09/12 14:56:41;;;;;;;1.63;1.25;;;27.00;99.90;31.00;101152.00;;;;5021836;28;20190;-82
2023/09/12 14:59:17;;;;;;;0.20;0.20;;;26.80;99.90;31.40;101147.00;;;;5021362;28;20195;-82
2023/09/12 15:02:03;;;;;;;0.82;0.80;;;26.90;99.90;31.70;101155.00;;;;5038456;28;20247;-82
2023/09/12 15:04:51;;;;;;;0.25;0.25;;;27.10;99.90;31.40;101159.00;;;;5036900;28;20183;-82
2023/09/12 15:07:43;;;;;;;1.02;0.93;;;27.10;99.90;31.40;101156.00;;;;5040571;28;20281;-82
2023/09/12 15:10:52;;;;;;;0.10;0.10;;;27.10;99.90;30.80;101132.00;;;;5035699;28;20179;-82
2023/09/12 15:13:59;;;;;;;1.15;1.15;;;26.90;99.90;30.80;101128.00;;;;5039562;28;20324;-81
2023/09/12 15:16:34;;;;;;;1.10;0.55;;;26.60;99.90;30.70;101122.00;;;;5035567;28;20182;-82
2023/09/12 15:19:27;;;;;;;0.55;0.55;;;26.60;99.90;31.00;101130.00;;;;5020965;28;20198;-82
2023/09/12 15:22:28;;;;;;;0.10;0.10;;;26.70;99.90;30.70;101133.00;;;;5034033;28;20194;-83
2023/09/12 15:25:05;;;;;;;0.10;0.10;;;26.60;99.90;30.60;101103.00;;;;5018604;28;20637;-82
2023/09/12 15:27:59;;;;;;;0.20;0.20;;;26.40;99.90;30.90;101127.00;;;;5032436;28;20189;-82
2023/09/12 15:31:04;;;;;;;0.10;0.10;;;26.40;99.90;30.70;101124.00;;;;5038761;28;20620;-82
2023/09/12 15:34:16;;;;;;;0.30;0.30;;;26.50;99.90;30.30;101126.00;;;;5013735;28;20226;-82
2023/09/12 15:37:28;;;;;;;0.57;0.57;;;26.50;99.90;30.30;101130.00;;;;5035366;28;20261;-82
2023/09/12 15:40:48;;;;;;;0.63;0.63;;;26.40;99.90;30.40;101126.00;;;;5023796;28;20246;-83
2023/09/12 15:43:41;;;;;;;0.20;0.20;;;26.20;99.90;30.30;101128.00;;;;5022700;28;20261;-83
2023/09/12 15:46:17;;;;;;;6.97;4.20;;;26.20;99.90;30.20;101122.00;;;;5035439;28;20183;-83
2023/09/12 15:49:10;;;;;;;3.47;2.72;;;26.20;99.90;27.70;101051.00;;;;5016192;28;20657;-82
2023/09/12 15:52:07;;;;;;;2.00;1.73;;;25.20;99.90;27.40;101059.00;;;;5021061;28;20661;-82
2023/09/12 15:54:51;;;;;;;0.25;0.25;;;24.60;99.90;28.60;101067.00;;;;5033150;28;20193;-83
2023/09/12 15:57:23;;;;;;;0.20;0.20;;;24.70;99.90;29.00;101070.00;;;;5057504;28;20270;-83
2023/09/12 15:59:51;;;;;;;0.20;0.20;;;24.90;99.90;29.70;101065.00;;;;5035452;28;20194;-81
2023/09/12 16:02:22;;;;;;;1.27;1.17;;;25.30;99.90;30.40;101081.00;;;;5039675;28;20298;-81
2023/09/12 16:05:13;;;;;;;0.20;0.20;;;25.70;99.90;29.80;101070.00;;;;5042378;28;20272;-80
2023/09/12 16:08:17;;;;;;;0.45;0.45;;;25.80;99.90;30.10;101080.00;;;;5042596;28;20178;-80
2023/09/12 16:11:06;;;;;;;0.20;0.20;;;25.90;99.90;30.20;101084.00;;;;5041698;28;20186;-80
2023/09/12 16:13:58;;;;;;;1.65;1.65;;;25.90;99.90;29.60;101055.00;;;;5036673;28;20422;-80
2023/09/12 16:16:27;;;;;;;0.43;0.43;;;26.00;99.90;30.20;101084.00;;;;5042381;28;20202;-81
2023/09/12 16:18:53;;;;;;;0.20;0.20;;;25.90;99.90;30.00;101104.00;;;;5044217;28;20335;-80
2023/09/12 16:21:24;;;;;;;0.28;0.28;;;26.00;99.90;30.20;101089.00;;;;5058148;28;20182;-80
2023/09/12 16:23:54;;;;;;;0.20;0.20;;;25.90;99.90;30.10;101100.00;;;;5026067;28;20202;-80
2023/09/12 16:26:24;;;;;;;0.20;0.20;;;25.90;99.90;30.10;101085.00;;;;5046131;28;20190;-79
2023/09/12 16:29:14;;;;;;;0.73;0.73;;;25.90;99.90;30.50;101082.00;;;;5043768;28;20584;-80
2023/09/12 16:31:40;;;;;;;0.43;0.43;;;26.10;99.90;29.60;101051.00;;;;5039127;28;20604;-80
2023/09/12 16:34:27;;;;;;;0.60;0.60;;;25.90;99.90;29.60;101037.00;;;;5039756;28;20224;-79
2023/09/12 16:36:53;;;;;;;0.20;0.20;;;25.70;99.90;29.40;101021.00;;;;5043828;28;20648;-80
2023/09/12 16:39:41;;;;;;;0.98;0.98;;;25.60;99.90;28.90;101012.00;;;;5039471;28;20179;-79
2023/09/12 16:42:30;;;;;;;1.50;1.38;;;25.50;99.90;28.90;101022.00;;;;5033535;28;20186;-80
2023/09/12 16:45:19;;;;;;;0.10;0.10;;;25.40;99.90;28.50;101019.00;;;;5033315;28;20313;-79
2023/09/12 16:48:13;;;;;;;0.90;0.90;;;25.00;99.90;28.40;101042.00;;;;5066418;28;20654;-79
2023/09/12 16:50:59;;;;;;;0.20;0.20;;;24.80;99.90;28.70;101061.00;;;;5025673;28;20567;-80
2023/09/12 16:53:39;;;;;;;3.53;2.28;;;24.90;99.90;29.10;101055.00;;;;5035839;28;20191;-80
2023/09/12 16:56:27;;;;;;;0.15;0.15;;;24.90;99.90;28.50;101036.00;;;;5033497;28;20182;-83
2023/09/12 16:59:22;;;;;;;1.35;1.27;;;24.90;99.90;28.70;101074.00;;;;5017292;28;20186;-84
2023/09/12 17:02:11;;;;;;;0.95;0.65;;;25.00;99.90;28.90;101063.00;;;;5035564;28;20187;-79
2023/09/12 17:04:44;;;;;;;0.20;0.20;;;25.00;99.90;28.60;101063.00;;;;5046011;28;20182;-79
2023/09/12 17:07:12;;;;;;;1.42;1.35;;;25.00;99.90;28.40;101046.00;;;;5026073;28;20190;-83
2023/09/12 17:09:46;;;;;;;0.30;0.30;;;24.80;99.90;28.10;101081.00;;;;5042076;28;20186;-82
2023/09/12 17:12:27;;;;;;;0.20;0.20;;;24.60;99.90;29.10;101065.00;;;;5025015;28;20206;-83
2023/09/12 17:15:11;;;;;;;4.15;2.40;;;24.80;99.90;29.10;101081.00;;;;5027319;28;20292;-83
2023/09/12 17:17:58;;;;;;;0.20;0.20;;;25.10;99.90;27.80;101082.00;;;;5042910;28;20186;-82
2023/09/12 17:20:58;;;;;;;1.17;1.17;;;24.60;99.90;28.70;101084.00;;;;5040787;28;20730;-81
2023/09/12 17:23:29;;;;;;;0.20;0.20;;;24.50;99.90;28.10;101074.00;;;;5040670;28;20204;-81
2023/09/12 17:26:23;;;;;;;0.45;0.45;;;24.60;99.90;28.60;101078.00;;;;5041238;28;20644;-83
2023/09/12 17:29:06;;;;;;;0.20;0.20;;;24.50;99.90;29.10;101082.00;;;;5029455;28;20187;-83
2023/09/12 17:31:41;;;;;;;0.55;0.55;;;24.90;99.90;28.10;101068.00;;;;5031507;28;20187;-82
2023/09/12 17:34:08;;;;;;;0.43;0.43;;;24.70;99.90;28.30;101073.00;;;;5032105;28;20294;-81
2023/09/12 17:36:51;;;;;;;0.38;0.38;;;24.40;99.90;28.80;101063.00;;;;5033548;28;20210;-83
2023/09/12 17:39:39;;;;;;;0.30;0.30;;;24.60;99.90;29.10;101088.00;;;;5032197;28;20182;-83
2023/09/12 17:42:25;;;;;;;0.20;0.20;;;24.80;99.90;28.90;101083.00;;;;5032733;28;20195;-83
2023/09/12 17:44:57;;;;;;;0.20;0.20;;;25.00;99.90;28.70;101087.00;;;;5002600;28;20211;-83
2023/09/12 17:47:42;;;;;;;0.30;0.30;;;24.90;99.90;28.60;101081.00;;;;5061402;28;20189;-81
2023/09/12 17:50:17;;;;;;;0.20;0.20;;;24.80;99.90;28.80;101094.00;;;;5016672;28;20222;-83
2023/09/12 17:53:12;;;;;;;1.15;1.15;;;24.70;99.90;28.10;101072.00;;;;5030425;28;20217;-83
2023/09/12 17:56:47;;;;;;;0.30;0.30;;;24.70;99.90;28.70;101089.00;;;;5024485;28;20195;-81
2023/09/12 17:59:33;;;;;;;0.30;0.30;;;24.60;99.90;28.40;101070.00;;;;5029822;28;20186;-82
2023/09/12 18:02:03;;;;;;;0.43;0.43;;;24.40;99.90;28.30;101065.00;;;;5031116;28;20245;-84
2023/09/12 18:04:55;;;;;;;0.40;0.40;;;24.30;99.90;28.20;101061.00;;;;5031551;28;20228;-72
2023/09/12 18:07:28;;;;;;;0.40;0.40;;;24.10;99.90;27.90;101061.00;;;;5005628;28;20195;-82
2023/09/12 18:10:26;;;;;;;0.40;0.40;;;24.10;99.90;27.90;101066.00;;;;5015380;28;20204;-82
2023/09/12 18:12:53;;;;;;;0.50;0.50;;;23.90;99.90;27.20;101048.00;;;;5054253;28;20209;-82
2023/09/12 18:15:24;;;;;;;0.60;0.60;;;23.70;99.90;27.30;101029.00;;;;5030642;28;20201;-82
2023/09/12 18:17:56;;;;;;;0.82;0.82;;;23.60;99.90;26.90;101035.00;;;;5043700;28;20626;-82
2023/09/12 18:20:22;;;;;;;1.60;1.50;;;23.30;99.90;26.30;101038.00;;;;5041010;28;20195;-82
2023/09/12 18:23:13;;;;;;;0.40;0.40;;;23.20;99.90;26.70;101034.00;;;;5040122;28;20187;-82
2023/09/12 18:25:45;;;;;;;0.40;0.40;;;23.00;99.90;26.60;101044.00;;;;5015623;28;20205;-81
2023/09/12 18:28:42;;;;;;;0.40;0.40;;;23.00;99.90;26.40;101059.00;;;;5043851;28;20185;-83
2023/09/12 18:31:17;;;;;;;0.40;0.40;;;22.80;99.90;26.10;101059.00;;;;5026727;28;20193;-82
2023/09/12 18:33:50;;;;;;;0.88;0.80;;;22.60;99.90;26.40;101031.00;;;;5024937;28;20190;-84
2023/09/12 18:36:19;;;;;;;1.55;1.52;;;22.60;99.90;26.70;101054.00;;;;5045137;28;20182;-84
2023/09/12 18:38:45;;;;;;;0.40;0.40;;;22.70;99.90;26.80;101072.00;;;;5046348;28;20197;-85
2023/09/12 18:41:35;;;;;;;0.43;0.43;;;22.80;99.90;26.80;101069.00;;;;5041696;28;20637;-84
2023/09/12 18:44:30;;;;;;;0.40;0.40;;;22.70;99.90;26.10;101074.00;;;;5026850;28;20710;-83
2023/09/12 18:47:06;;;;;;;0.95;0.95;;;22.60;99.90;26.40;101082.00;;;;5038769;28;20206;-83
2023/09/12 18:49:50;;;;;;;0.40;0.40;;;22.50;99.90;26.50;101082.00;;;;5040865;28;20193;-82
2023/09/12 18:52:42;;;;;;;0.50;0.50;;;22.60;99.90;26.50;101082.00;;;;5042913;28;20285;-84
2023/09/12 18:55:41;;;;;;;0.50;0.50;;;22.50;99.90;26.60;101090.00;;;;5034148;28;20198;-83
2023/09/12 18:58:07;;;;;;;0.70;0.70;;;22.70;99.90;26.70;101084.00;;;;5029518;28;20296;-82